Time;durP1;ratioP1;P1;durP2;ratioP2;P2;SDS_P1;SDS_P2;PMS_P1;PMS_P2;Temp;Humidity;BMP_temperature;BMP_pressure;BME280_temperature;BME280_humidity;BME280_pressure;Samples;Min_cycle;Max_cycle;Signal;HPM_P1;HPM_P2
2024/01/18 00:07:22;;;;;;;25.2;15.3;;;;;;;1.7;85.6;95966.666666667;;;;
2024/01/18 00:18:20;;;;;;;30.8;18.1;;;;;;;1.92;86.84;95960;;;;
2024/01/18 00:29:20;;;;;;;30.8;18.1;;;;;;;3.27;89.27;95953.333333333;;;;
2024/01/18 00:39:21;;;;;;;30.8;18.1;;;;;;;3.62;87.77;95961.666666667;;;;
2024/01/18 00:49:20;;;;;;;17.7;7;;;;;;;2.79;82.23;95981.666666667;;;;
2024/01/18 00:59:20;;;;;;;17.7;7;;;;;;;2.48;84.5;95985;;;;
2024/01/18 01:10:20;;;;;;;17.7;7;;;;;;;2.52;85.41;96010;;;;
2024/01/18 01:21:20;;;;;;;11.7;6.8;;;;;;;2.94;87.75;95995;;;;
2024/01/18 01:31:20;;;;;;;11.7;6.8;;;;;;;3.77;88.65;95988.333333333;;;;
2024/01/18 01:42:20;;;;;;;11.7;6.8;;;;;;;4.79;86.23;95986.666666667;;;;
2024/01/18 01:52:20;;;;;;;7.4;4.2;;;;;;;5.5;82.81;95968.333333333;;;;
2024/01/18 02:02:20;;;;;;;7.4;4.2;;;;;;;6.3;80.07;95955;;;;
2024/01/18 02:13:20;;;;;;;7.2;3.6;;;;;;;6.12;80.31;95946.666666667;;;;
2024/01/18 02:24:20;;;;;;;7.2;3.6;;;;;;;6.59;79.55;95925;;;;
2024/01/18 02:35:20;;;;;;;7.2;3.6;;;;;;;7.11;78.29;95910;;;;
2024/01/18 02:45:20;;;;;;;4.2;2.3;;;;;;;7.32;77.61;95918.333333333;;;;
2024/01/18 02:55:20;;;;;;;4.2;2.3;;;;;;;7.29;77.53;95923.333333333;;;;
2024/01/18 03:06:20;;;;;;;4.2;2.3;;;;;;;7.32;77.67;95910;;;;
2024/01/18 03:16:20;;;;;;;5.3;3;;;;;;;7.42;78.04;95901.666666667;;;;
2024/01/18 03:26:20;;;;;;;5.3;3;;;;;;;7.42;77.92;95908.333333333;;;;
2024/01/18 03:37:20;;;;;;;5.3;3;;;;;;;7.58;78.36;95916.666666667;;;;
2024/01/18 03:48:20;;;;;;;4.3;2.3;;;;;;;7.51;78.49;95913.333333333;;;;
2024/01/18 03:59:23;;;;;;;4.3;2.3;;;;;;;7.08;79.04;95918.333333333;;;;
2024/01/18 04:09:20;;;;;;;4.3;2.3;;;;;;;6.82;80.23;95913.333333333;;;;
2024/01/18 04:19:20;;;;;;;3.5;1.8;;;;;;;6.87;80.74;95906.666666667;;;;
2024/01/18 04:30:20;;;;;;;3.5;1.8;;;;;;;7.01;81.02;95915;;;;
2024/01/18 04:41:20;;;;;;;3.5;1.8;;;;;;;6.98;81.67;95921.666666667;;;;
2024/01/18 04:52:20;;;;;;;3;1.6;;;;;;;6.96;83.27;95925;;;;
2024/01/18 05:02:20;;;;;;;3;1.6;;;;;;;7.15;84.57;95948.333333333;;;;
2024/01/18 05:13:20;;;;;;;4.3;1.4;;;;;;;7.12;85.69;95955;;;;
2024/01/18 05:24:20;;;;;;;4.3;1.4;;;;;;;7.19;85.51;95965;;;;
2024/01/18 05:35:20;;;;;;;4.3;1.4;;;;;;;7.29;86.46;95975;;;;
2024/01/18 05:46:20;;;;;;;3.5;1.8;;;;;;;7.26;86.87;95998.333333333;;;;
2024/01/18 05:56:20;;;;;;;3.5;1.8;;;;;;;7.22;87.08;96005;;;;
2024/01/18 06:07:20;;;;;;;3.5;1.8;;;;;;;7.22;87.76;96011.666666667;;;;
2024/01/18 06:18:20;;;;;;;4.3;1.6;;;;;;;7.24;88;96021.666666667;;;;
2024/01/18 06:28:20;;;;;;;4.3;1.6;;;;;;;7.23;88.5;96033.333333333;;;;
2024/01/18 06:39:20;;;;;;;4.3;1.6;;;;;;;7.22;88.38;96038.333333333;;;;
2024/01/18 06:50:22;;;;;;;3.9;2.1;;;;;;;7.26;88.69;96050;;;;
2024/01/18 07:01:20;;;;;;;3.9;2.1;;;;;;;7.05;89.51;96046.666666667;;;;
2024/01/18 07:11:20;;;;;;;3.9;2.1;;;;;;;7.19;88.77;96055;;;;
2024/01/18 07:22:20;;;;;;;5;1.9;;;;;;;7.16;88.82;96065;;;;
2024/01/18 07:32:20;;;;;;;5;1.9;;;;;;;7.26;88.71;96066.666666667;;;;
2024/01/18 07:43:20;;;;;;;5.1;2.5;;;;;;;7.35;88.4;96070;;;;
2024/01/18 07:54:20;;;;;;;5.1;2.5;;;;;;;7.45;87.84;96083.333333333;;;;
2024/01/18 08:04:20;;;;;;;5.1;2.5;;;;;;;7.59;87.22;96090;;;;
2024/01/18 08:15:21;;;;;;;4.8;2.8;;;;;;;7.74;86.71;96101.666666667;;;;
2024/01/18 08:25:22;;;;;;;4.8;2.8;;;;;;;7.79;86.55;96115;;;;
2024/01/18 08:36:20;;;;;;;4.8;2.8;;;;;;;7.8;86.11;96131.666666667;;;;
2024/01/18 08:47:22;;;;;;;8.3;4.6;;;;;;;7.91;85.68;96143.333333333;;;;
2024/01/18 08:57:20;;;;;;;8.3;4.6;;;;;;;8.03;85.24;96153.333333333;;;;
2024/01/18 09:07:20;;;;;;;8.3;4.6;;;;;;;7.87;85.65;96186.666666667;;;;
2024/01/18 09:18:20;;;;;;;12.7;8.4;;;;;;;7.8;86.8;96198.333333333;;;;
2024/01/18 09:29:20;;;;;;;12.7;8.4;;;;;;;7.35;87.69;96211.666666667;;;;
2024/01/18 09:39:20;;;;;;;12.7;8.4;;;;;;;7.06;87.77;96238.333333333;;;;
2024/01/18 09:50:20;;;;;;;19.8;14.5;;;;;;;6.97;87.74;96250;;;;
2024/01/18 10:01:20;;;;;;;19.8;14.5;;;;;;;6.47;88.34;96256.666666667;;;;
2024/01/18 10:12:20;;;;;;;19.8;14.5;;;;;;;6.22;88.52;96260;;;;
2024/01/18 10:22:20;;;;;;;20;15.1;;;;;;;6.22;88.23;96260;;;;
2024/01/18 10:32:20;;;;;;;20;15.1;;;;;;;6.25;87.93;96270;;;;
2024/01/18 10:43:20;;;;;;;23.7;15.3;;;;;;;5.89;87.98;96280;;;;
2024/01/18 10:53:20;;;;;;;23.7;15.3;;;;;;;5.91;87.86;96290;;;;
2024/01/18 11:04:20;;;;;;;23.7;15.3;;;;;;;5.67;87.59;96306.666666667;;;;
2024/01/18 11:14:20;;;;;;;24.1;15.9;;;;;;;5.41;87.79;96306.666666667;;;;
2024/01/18 11:24:20;;;;;;;24.1;15.9;;;;;;;5.44;87.45;96298.333333333;;;;
2024/01/18 11:34:20;;;;;;;24.1;15.9;;;;;;;5.34;87.8;96286.666666667;;;;
2024/01/18 11:44:20;;;;;;;24.8;15.6;;;;;;;5.31;87.84;96291.666666667;;;;
2024/01/18 11:55:21;;;;;;;24.8;15.6;;;;;;;5.29;88.17;96288.333333333;;;;
2024/01/18 12:05:20;;;;;;;24.8;15.6;;;;;;;5.39;87.67;96288.333333333;;;;
2024/01/18 12:16:20;;;;;;;26.9;15.3;;;;;;;5.19;87.6;96280;;;;
2024/01/18 12:26:20;;;;;;;26.9;15.3;;;;;;;5.27;87.31;96298.333333333;;;;
2024/01/18 12:36:20;;;;;;;26.9;15.3;;;;;;;5.07;87.4;96300;;;;
2024/01/18 12:46:21;;;;;;;28.3;17.3;;;;;;;5.05;87.39;96300;;;;
2024/01/18 12:56:20;;;;;;;28.3;17.3;;;;;;;4.84;87.27;96298.333333333;;;;
2024/01/18 13:07:20;;;;;;;28.3;17.3;;;;;;;4.96;87.47;96318.333333333;;;;
2024/01/18 13:17:21;;;;;;;34.3;20.3;;;;;;;4.88;87.19;96320;;;;
2024/01/18 13:27:20;;;;;;;34.3;20.3;;;;;;;4.89;87.12;96328.333333333;;;;
2024/01/18 13:38:20;;;;;;;34.3;20.3;;;;;;;4.89;86.38;96343.333333333;;;;
2024/01/18 13:48:20;;;;;;;33.2;20.4;;;;;;;4.88;86.4;96355;;;;
2024/01/18 13:58:20;;;;;;;33.2;20.4;;;;;;;4.56;87.21;96370;;;;
2024/01/18 14:08:20;;;;;;;33.2;20.4;;;;;;;4.6;87.23;96381.666666667;;;;
2024/01/18 14:18:21;;;;;;;36.7;21.6;;;;;;;4.54;87.12;96388.333333333;;;;
2024/01/18 14:29:20;;;;;;;36.7;21.6;;;;;;;4.67;86.78;96376.666666667;;;;
2024/01/18 14:39:20;;;;;;;36.7;21.6;;;;;;;4.68;86.8;96363.333333333;;;;
2024/01/18 14:50:20;;;;;;;37.5;24.5;;;;;;;4.67;86.69;96356.666666667;;;;
2024/01/18 15:00:20;;;;;;;37.5;24.5;;;;;;;4.73;86.68;96363.333333333;;;;
2024/01/18 15:10:20;;;;;;;37.5;24.5;;;;;;;4.66;86.58;96376.666666667;;;;
2024/01/18 15:21:20;;;;;;;34.1;21.6;;;;;;;4.72;86.64;96391.666666667;;;;
2024/01/18 15:31:21;;;;;;;34.1;21.6;;;;;;;4.71;86.07;96386.666666667;;;;
2024/01/18 15:41:20;;;;;;;34.1;21.6;;;;;;;4.75;86.04;96381.666666667;;;;
2024/01/18 15:52:21;;;;;;;43.8;26.1;;;;;;;4.48;86.6;96381.666666667;;;;
2024/01/18 16:03:21;;;;;;;43.8;26.1;;;;;;;4.2;87.49;96388.333333333;;;;
2024/01/18 16:13:21;;;;;;;45.9;25.6;;;;;;;4.24;87.23;96406.666666667;;;;
2024/01/18 16:24:21;;;;;;;45.9;25.6;;;;;;;4.23;87.08;96415;;;;
2024/01/18 16:34:21;;;;;;;45.9;25.6;;;;;;;4.03;87.81;96410;;;;
2024/01/18 16:45:21;;;;;;;62.8;34.9;;;;;;;3.92;87.89;96423.333333333;;;;
2024/01/18 16:56:21;;;;;;;62.8;34.9;;;;;;;3.55;88.88;96426.666666667;;;;
2024/01/18 17:07:21;;;;;;;62.8;34.9;;;;;;;3.23;89.51;96456.666666667;;;;
2024/01/18 17:18:21;;;;;;;47.6;27.6;;;;;;;3.22;88.69;96496.666666667;;;;
2024/01/18 17:28:21;;;;;;;47.6;27.6;;;;;;;2.99;89.21;96511.666666667;;;;
2024/01/18 17:39:21;;;;;;;47.6;27.6;;;;;;;2.88;88.94;96551.666666667;;;;
2024/01/18 17:50:21;;;;;;;29.2;16.6;;;;;;;2.75;88.87;96585;;;;
2024/01/18 18:00:21;;;;;;;29.2;16.6;;;;;;;2.63;88.83;96613.333333333;;;;
2024/01/18 18:10:21;;;;;;;29.2;16.6;;;;;;;2.64;88.27;96628.333333333;;;;
2024/01/18 18:21:23;;;;;;;17.8;10.3;;;;;;;2.59;87.98;96666.666666667;;;;
2024/01/18 18:31:21;;;;;;;17.8;10.3;;;;;;;2.39;87.61;96703.333333333;;;;
2024/01/18 18:41:21;;;;;;;17.8;10.3;;;;;;;2.3;87.36;96720;;;;
2024/01/18 18:52:21;;;;;;;18.5;10.2;;;;;;;2.07;87.37;96748.333333333;;;;
2024/01/18 19:02:21;;;;;;;18.5;10.2;;;;;;;1.91;88;96791.666666667;;;;
2024/01/18 19:12:21;;;;;;;14.8;8.5;;;;;;;1.79;88.33;96805;;;;
2024/01/18 19:23:21;;;;;;;14.8;8.5;;;;;;;1.59;88.99;96835;;;;
2024/01/18 19:34:20;;;;;;;14.8;8.5;;;;;;;1.43;89.44;96863.333333333;;;;
2024/01/18 19:44:21;;;;;;;15.3;9.3;;;;;;;1.44;89.58;96893.333333333;;;;
2024/01/18 19:54:21;;;;;;;15.3;9.3;;;;;;;1.51;89.47;96910;;;;
2024/01/18 20:04:21;;;;;;;15.3;9.3;;;;;;;1.25;89.33;96950;;;;
2024/01/18 20:14:21;;;;;;;19.7;11.7;;;;;;;1.05;89.08;96983.333333333;;;;
2024/01/18 20:25:21;;;;;;;19.7;11.7;;;;;;;0.61;89.07;97018.333333333;;;;
2024/01/18 20:36:21;;;;;;;19.7;11.7;;;;;;;0.53;89.41;97043.333333333;;;;
2024/01/18 20:46:21;;;;;;;24.6;12.6;;;;;;;0.45;89.32;97081.666666667;;;;
2024/01/18 20:57:21;;;;;;;24.6;12.6;;;;;;;0.29;89.33;97111.666666667;;;;
2024/01/18 21:07:21;;;;;;;24.6;12.6;;;;;;;0.25;89.62;97138.333333333;;;;
2024/01/18 21:17:21;;;;;;;16.8;10.4;;;;;;;-0.05;89.24;97171.666666667;;;;
2024/01/18 21:27:21;;;;;;;16.8;10.4;;;;;;;-0.24;88.67;97196.666666667;;;;
2024/01/18 21:38:21;;;;;;;16.8;10.4;;;;;;;-0.37;89.21;97231.666666667;;;;
2024/01/18 21:49:21;;;;;;;15.6;8.5;;;;;;;-0.45;89.21;97256.666666667;;;;
2024/01/18 22:00:22;;;;;;;15.6;8.5;;;;;;;-0.41;88.58;97286.666666667;;;;
2024/01/18 22:10:22;;;;;;;15.6;8.5;;;;;;;-0.26;88.55;97315;;;;
2024/01/18 22:20:21;;;;;;;18.6;12;;;;;;;-0.25;88.15;97333.333333333;;;;
2024/01/18 22:31:22;;;;;;;18.6;12;;;;;;;-0.19;88.04;97360;;;;
2024/01/18 22:42:21;;;;;;;13.6;7.6;;;;;;;-0.1;88.23;97380;;;;
2024/01/18 22:52:21;;;;;;;13.6;7.6;;;;;;;-0.11;88.31;97406.666666667;;;;
2024/01/18 23:03:21;;;;;;;13.6;7.6;;;;;;;-0.04;87.96;97445;;;;
2024/01/18 23:14:21;;;;;;;19.8;8.6;;;;;;;-0.1;87.93;97465;;;;
2024/01/18 23:24:21;;;;;;;19.8;8.6;;;;;;;-0.13;88.36;97495;;;;
2024/01/18 23:34:21;;;;;;;19.8;8.6;;;;;;;-0.21;88.4;97526.666666667;;;;
2024/01/18 23:45:21;;;;;;;21.9;11.2;;;;;;;-0.18;88.39;97543.333333333;;;;
2024/01/18 23:56:21;;;;;;;21.9;11.2;;;;;;;-0.12;88.35;97551.666666667;;;;
